createdAt,value
2019-03-08T00:00:54.998Z,60.80
2019-03-08T00:03:23.264Z,60.70
2019-03-08T00:05:51.551Z,59.90
2019-03-08T00:08:19.852Z,59.80
2019-03-08T00:10:48.222Z,59.70
2019-03-08T00:13:16.610Z,59.40
2019-03-08T00:15:44.915Z,58.80
2019-03-08T00:18:13.262Z,58.80
2019-03-08T00:20:41.520Z,58.70
2019-03-08T00:23:09.769Z,58.30
2019-03-08T00:25:38.018Z,57.90
2019-03-08T00:28:06.380Z,57.90
2019-03-08T00:30:34.701Z,58.30
2019-03-08T00:33:02.991Z,57.90
2019-03-08T00:35:31.379Z,57.70
2019-03-08T00:37:59.730Z,57.70
2019-03-08T00:40:28.073Z,57.60
2019-03-08T00:42:56.425Z,57.50
2019-03-08T00:45:24.736Z,57.60
2019-03-08T00:47:53.042Z,58.10
2019-03-08T00:50:21.378Z,58.10
2019-03-08T00:52:49.628Z,58.60
2019-03-08T00:55:17.894Z,59.20
2019-03-08T00:57:46.219Z,60.10
2019-03-08T01:00:22.370Z,60.50
2019-03-08T01:02:50.682Z,62.00
2019-03-08T01:05:18.938Z,63.30
2019-03-08T01:07:47.335Z,63.90
2019-03-08T01:10:21.078Z,65.60
2019-03-08T01:12:49.345Z,66.30
2019-03-08T01:15:18.075Z,67.30
2019-03-08T01:17:46.317Z,68.10
2019-03-08T01:20:20.684Z,68.80
2019-03-08T01:22:49.008Z,68.70
2019-03-08T01:25:18.739Z,69.90
2019-03-08T01:27:59.345Z,69.50
2019-03-08T01:30:27.719Z,69.00
2019-03-08T01:32:56.032Z,71.00
2019-03-08T01:35:24.281Z,70.40
2019-03-08T01:37:53.017Z,71.60
2019-03-08T01:40:21.387Z,71.70
2019-03-08T01:42:49.670Z,72.50
2019-03-08T01:45:17.929Z,72.90
2019-03-08T01:47:46.246Z,74.60
2019-03-08T01:50:14.493Z,74.90
2019-03-08T01:52:43.035Z,75.70
2019-03-08T01:55:11.293Z,75.80
2019-03-08T01:57:39.687Z,75.90
2019-03-08T02:00:14.408Z,76.40
2019-03-08T02:02:42.744Z,76.60
2019-03-08T02:05:10.992Z,77.20
2019-03-08T02:07:39.322Z,77.80
2019-03-08T02:10:12.788Z,77.80
2019-03-08T02:12:42.102Z,78.60
2019-03-08T02:15:12.714Z,78.30
2019-03-08T02:17:40.973Z,78.80
2019-03-08T02:20:14.533Z,78.60
2019-03-08T02:22:42.804Z,79.30
2019-03-08T02:25:11.906Z,79.60
2019-03-08T02:27:40.262Z,79.70
2019-03-08T02:30:13.501Z,79.60
2019-03-08T02:32:42.152Z,80.40
2019-03-08T02:35:10.527Z,80.70
2019-03-08T02:37:38.976Z,80.80
2019-03-08T02:40:32.121Z,81.60
2019-03-08T02:43:00.990Z,81.70
2019-03-08T02:45:29.308Z,81.60
2019-03-08T02:47:57.647Z,81.20
2019-03-08T02:50:25.885Z,81.30
2019-03-08T02:52:54.162Z,81.40
2019-03-08T02:55:22.441Z,81.40
2019-03-08T02:57:50.962Z,80.90
2019-03-08T03:00:19.491Z,80.60
2019-03-08T03:02:47.841Z,80.80
2019-03-08T03:05:16.092Z,80.70
2019-03-08T03:07:44.442Z,81.10
2019-03-08T03:10:13.669Z,81.40
2019-03-08T03:12:41.936Z,81.60
2019-03-08T03:15:14.325Z,81.70
2019-03-08T03:17:42.613Z,81.70
2019-03-08T03:20:13.410Z,81.90
2019-03-08T03:22:41.753Z,82.00
2019-03-08T03:25:12.027Z,81.60
2019-03-08T03:27:40.361Z,82.20
2019-03-08T03:30:14.279Z,81.70
2019-03-08T03:32:42.519Z,81.50
2019-03-08T03:35:10.855Z,82.00
2019-03-08T03:37:39.103Z,81.90
2019-03-08T03:40:13.731Z,82.20
2019-03-08T03:42:42.061Z,82.10
2019-03-08T03:45:12.316Z,82.50
2019-03-08T03:47:40.655Z,82.70
2019-03-08T03:50:12.827Z,83.10
2019-03-08T03:52:41.354Z,83.00
2019-03-08T03:55:14.443Z,84.20
2019-03-08T03:57:42.770Z,84.00
2019-03-08T04:00:19.718Z,84.40
2019-03-08T04:02:48.045Z,84.40
2019-03-08T04:05:16.383Z,84.30
2019-03-08T04:07:44.619Z,84.50
2019-03-08T04:10:14.439Z,84.40
2019-03-08T04:12:42.758Z,84.90
2019-03-08T04:15:13.751Z,85.10
2019-03-08T04:17:42.078Z,84.50
2019-03-08T04:20:13.414Z,84.50
2019-03-08T04:22:41.750Z,85.00
2019-03-08T04:25:11.318Z,85.30
2019-03-08T04:27:41.676Z,85.50
2019-03-08T04:30:21.852Z,85.50
2019-03-08T04:32:50.129Z,85.70
2019-03-08T04:35:18.421Z,85.10
2019-03-08T04:37:46.669Z,85.20
2019-03-08T04:40:14.939Z,84.80
2019-03-08T04:42:43.268Z,85.20
2019-03-08T04:45:16.559Z,84.50
2019-03-08T04:47:44.960Z,84.50
2019-03-08T04:50:15.071Z,84.70
2019-03-08T04:52:43.402Z,84.10
2019-03-08T04:55:16.675Z,84.30
2019-03-08T04:57:44.610Z,84.30
2019-03-08T05:00:14.570Z,84.10
2019-03-08T05:02:42.881Z,84.50
2019-03-08T05:05:11.213Z,84.60
2019-03-08T05:07:39.476Z,84.60
2019-03-08T05:10:10.875Z,84.60
2019-03-08T05:12:39.574Z,84.70
2019-03-08T05:15:07.920Z,84.60
2019-03-08T05:17:36.262Z,84.60
2019-03-08T05:20:06.515Z,84.70
2019-03-08T05:22:34.789Z,84.60
2019-03-08T05:25:04.185Z,84.70
2019-03-08T05:27:32.812Z,84.50
2019-03-08T05:30:01.135Z,84.10
2019-03-08T05:32:29.477Z,84.30
2019-03-08T05:34:57.743Z,83.70
2019-03-08T05:37:26.057Z,83.70
2019-03-08T05:39:54.340Z,83.80
2019-03-08T05:42:23.055Z,83.70
2019-03-08T05:44:51.360Z,83.60
2019-03-08T05:47:19.648Z,83.90
2019-03-08T05:49:47.894Z,83.90
2019-03-08T05:52:16.214Z,84.00
2019-03-08T05:54:44.487Z,83.90
2019-03-08T05:57:12.858Z,84.30
2019-03-08T05:59:41.111Z,84.00
2019-03-08T06:02:09.412Z,84.20
2019-03-08T06:04:37.818Z,84.10
2019-03-08T06:07:06.073Z,84.10
2019-03-08T06:09:34.331Z,84.30
2019-03-08T06:12:02.591Z,84.60
2019-03-08T06:14:31.021Z,84.60
2019-03-08T06:16:59.349Z,84.60
2019-03-08T06:19:27.630Z,84.40
2019-03-08T06:21:55.894Z,84.30
2019-03-08T06:24:24.163Z,84.30
2019-03-08T06:26:52.487Z,83.70
2019-03-08T06:29:20.814Z,83.30
2019-03-08T06:31:49.066Z,82.90
2019-03-08T06:34:17.408Z,82.40
2019-03-08T06:36:45.717Z,82.30
2019-03-08T06:39:13.975Z,82.70
2019-03-08T06:41:42.241Z,82.70
2019-03-08T06:44:10.516Z,82.60
2019-03-08T06:46:39.037Z,82.60
2019-03-08T06:49:07.381Z,83.00
2019-03-08T06:51:35.710Z,82.80
2019-03-08T06:54:03.986Z,82.90
2019-03-08T06:56:32.337Z,82.60
2019-03-08T06:59:02.222Z,82.50
2019-03-08T07:01:30.725Z,82.30
2019-03-08T07:03:59.081Z,81.90
2019-03-08T07:06:27.424Z,81.60
2019-03-08T07:08:55.795Z,81.20
2019-03-08T07:11:24.034Z,80.70
2019-03-08T07:13:52.293Z,80.50
2019-03-08T07:16:20.593Z,79.40
2019-03-08T07:18:48.935Z,79.60
2019-03-08T07:21:24.916Z,79.70
2019-03-08T07:23:57.612Z,81.40
2019-03-08T07:26:39.129Z,81.80
2019-03-08T07:29:11.781Z,82.20
2019-03-08T07:31:44.454Z,83.00
2019-03-08T07:34:20.616Z,83.90
2019-03-08T07:37:06.710Z,84.10
2019-03-08T07:39:48.921Z,85.00
2019-03-08T07:42:28.130Z,83.60
2019-03-08T07:45:01.056Z,82.70
2019-03-08T07:47:34.274Z,82.30
2019-03-08T07:50:04.188Z,81.20
2019-03-08T07:52:37.045Z,80.50
2019-03-08T07:55:08.957Z,80.70
2019-03-08T07:57:55.374Z,79.00
2019-03-08T08:00:40.537Z,78.00
2019-03-08T08:03:13.172Z,77.20
2019-03-08T08:05:58.543Z,77.50
2019-03-08T08:08:40.893Z,76.50
2019-03-08T08:11:17.437Z,75.40
2019-03-08T08:13:59.435Z,75.20
2019-03-08T08:16:47.718Z,74.40
2019-03-08T08:19:20.725Z,73.10
2019-03-08T08:22:05.677Z,73.10
2019-03-08T08:24:35.573Z,73.70
2019-03-08T08:27:08.576Z,73.30
2019-03-08T08:29:44.040Z,72.80
2019-03-08T08:32:25.813Z,75.50
2019-03-08T08:34:58.714Z,75.10
2019-03-08T08:37:34.642Z,71.60
2019-03-08T08:40:10.710Z,70.70
2019-03-08T08:42:40.650Z,63.60
2019-03-08T08:45:15.223Z,56.20
2019-03-08T08:48:01.453Z,49.90
2019-03-08T08:50:37.327Z,45.00
2019-03-08T08:53:10.408Z,42.00
2019-03-08T08:55:55.626Z,37.00
2019-03-08T08:58:37.362Z,35.60
2019-03-08T09:01:10.052Z,37.60
2019-03-08T09:03:56.564Z,35.50
2019-03-08T09:06:26.550Z,33.10
2019-03-08T09:09:02.597Z,32.30
2019-03-08T09:11:32.578Z,31.00
2019-03-08T09:14:17.681Z,28.60
2019-03-08T09:16:53.511Z,30.40
2019-03-08T09:19:23.486Z,30.60
2019-03-08T09:21:56.369Z,30.90
2019-03-08T09:24:26.413Z,33.90
2019-03-08T09:27:12.654Z,35.50
2019-03-08T09:29:48.580Z,38.10
2019-03-08T09:32:27.318Z,41.30
2019-03-08T09:35:06.139Z,43.60
2019-03-08T09:37:38.728Z,40.40
2019-03-08T09:40:28.578Z,34.90
2019-03-08T09:42:58.565Z,33.10
2019-03-08T09:45:34.450Z,31.00
2019-03-08T09:48:10.402Z,28.10
2019-03-08T09:50:46.524Z,27.50
2019-03-08T09:53:19.586Z,28.70
2019-03-08T09:56:01.598Z,28.30
2019-03-08T09:58:40.399Z,29.50
2019-03-08T10:01:19.359Z,27.90
2019-03-08T10:03:49.433Z,28.30
2019-03-08T10:06:22.215Z,25.90
2019-03-08T10:08:56.345Z,26.10
2019-03-08T10:11:27.579Z,27.50
2019-03-08T10:14:03.564Z,28.50
2019-03-08T10:16:33.608Z,28.80
2019-03-08T10:19:12.567Z,31.40
2019-03-08T10:21:42.535Z,33.50
2019-03-08T10:24:30.824Z,35.60
2019-03-08T10:27:00.734Z,36.40
2019-03-08T10:29:31.022Z,35.50
2019-03-08T10:32:00.921Z,32.90
2019-03-08T10:34:33.623Z,31.30
2019-03-08T10:37:03.617Z,28.80
2019-03-08T10:39:33.638Z,29.10
2019-03-08T10:42:03.623Z,30.30
2019-03-08T10:44:36.064Z,30.70
2019-03-08T10:47:22.361Z,30.20
2019-03-08T10:49:55.296Z,29.80
2019-03-08T10:52:36.011Z,29.20
2019-03-08T10:55:08.138Z,28.70
2019-03-08T10:57:43.919Z,27.00
2019-03-08T11:00:21.829Z,26.90
2019-03-08T11:02:51.729Z,26.70
2019-03-08T11:05:24.649Z,25.30
2019-03-08T11:08:08.353Z,25.30
2019-03-08T11:10:55.040Z,25.50
2019-03-08T11:13:27.909Z,27.20
2019-03-08T11:15:57.914Z,27.00
2019-03-08T11:18:27.855Z,28.60
2019-03-08T11:20:58.056Z,32.40
2019-03-08T11:23:33.719Z,33.40
2019-03-08T11:26:03.725Z,34.70
2019-03-08T11:28:33.635Z,32.30
2019-03-08T11:31:12.288Z,31.00
2019-03-08T11:33:48.006Z,30.10
2019-03-08T11:36:23.918Z,31.30
2019-03-08T11:38:56.818Z,30.80
2019-03-08T11:41:26.764Z,29.70
2019-03-08T11:43:59.456Z,27.50
2019-03-08T11:46:29.373Z,26.40
2019-03-08T11:49:02.049Z,27.10
2019-03-08T11:51:34.895Z,27.20
2019-03-08T11:54:08.219Z,27.30
2019-03-08T11:56:56.612Z,25.80
2019-03-08T11:59:44.645Z,27.10
2019-03-08T12:02:14.566Z,29.20
2019-03-08T12:04:50.373Z,30.80
2019-03-08T12:07:29.718Z,31.00
2019-03-08T12:09:59.973Z,33.30
2019-03-08T12:12:41.872Z,33.80
2019-03-08T12:15:27.184Z,33.80
2019-03-08T12:18:02.899Z,37.00
2019-03-08T12:20:35.486Z,37.30
2019-03-08T12:23:11.256Z,40.00
2019-03-08T12:25:41.229Z,42.40
2019-03-08T12:28:14.082Z,42.50
2019-03-08T12:30:59.019Z,41.80
2019-03-08T12:33:28.975Z,41.90
2019-03-08T12:36:17.007Z,41.00
2019-03-08T12:38:56.073Z,40.60
2019-03-08T12:41:38.186Z,41.30
2019-03-08T12:44:08.097Z,40.00
2019-03-08T12:46:38.026Z,37.70
2019-03-08T12:49:08.032Z,38.80
2019-03-08T12:51:38.039Z,40.10
2019-03-08T12:54:10.800Z,40.20
2019-03-08T12:56:43.721Z,40.40
2019-03-08T12:59:31.164Z,38.30
2019-03-08T13:02:07.250Z,36.30
2019-03-08T13:04:40.518Z,37.70
2019-03-08T13:07:16.176Z,36.90
2019-03-08T13:09:50.555Z,36.10
2019-03-08T13:12:18.925Z,37.30
2019-03-08T13:14:47.265Z,38.40
2019-03-08T13:17:15.893Z,38.20
2019-03-08T13:19:44.237Z,38.30
2019-03-08T13:22:12.549Z,38.70
2019-03-08T13:24:40.840Z,39.10
2019-03-08T13:27:09.111Z,38.90
2019-03-08T13:29:37.485Z,38.40
2019-03-08T13:32:05.766Z,38.70
2019-03-08T13:34:34.041Z,37.00
2019-03-08T13:37:02.289Z,36.80
2019-03-08T13:39:30.656Z,37.10
2019-03-08T13:41:58.948Z,38.00
2019-03-08T13:44:27.307Z,38.00
2019-03-08T13:46:55.636Z,39.80
2019-03-08T13:49:24.222Z,41.20
2019-03-08T13:51:52.569Z,43.00
2019-03-08T13:54:20.845Z,45.00
2019-03-08T13:56:49.118Z,48.60
2019-03-08T13:59:17.405Z,51.30
2019-03-08T14:01:45.668Z,51.20
2019-03-08T14:04:14.114Z,50.80
2019-03-08T14:06:42.446Z,50.40
2019-03-08T14:09:10.755Z,50.60
2019-03-08T14:11:39.090Z,50.10
2019-03-08T14:14:07.347Z,48.20
2019-03-08T14:16:35.710Z,46.80
2019-03-08T14:19:04.391Z,45.70
2019-03-08T14:21:32.705Z,45.20
2019-03-08T14:24:01.066Z,43.10
2019-03-08T14:26:29.416Z,43.20
2019-03-08T14:28:57.671Z,41.80
2019-03-08T14:31:27.597Z,41.20
2019-03-08T14:33:56.052Z,41.00
2019-03-08T14:36:24.386Z,41.20
2019-03-08T14:38:52.725Z,40.80
2019-03-08T14:41:31.837Z,41.50
2019-03-08T14:44:01.932Z,40.20
2019-03-08T14:46:31.878Z,37.20
2019-03-08T14:49:00.323Z,35.60
2019-03-08T14:51:28.659Z,36.50
2019-03-08T14:53:57.030Z,38.60
2019-03-08T14:56:25.309Z,40.20
2019-03-08T14:58:53.994Z,41.70
2019-03-08T15:01:22.346Z,44.20
2019-03-08T15:03:50.725Z,45.90
2019-03-08T15:06:19.049Z,46.80
2019-03-08T15:08:47.309Z,47.20
2019-03-08T15:11:15.570Z,48.40
2019-03-08T15:13:43.912Z,48.10
2019-03-08T15:16:13.222Z,50.50
2019-03-08T15:18:41.560Z,51.50
2019-03-08T15:21:09.844Z,52.70
2019-03-08T15:23:38.102Z,51.10
2019-03-08T15:26:06.412Z,51.00
2019-03-08T15:28:34.755Z,51.10
2019-03-08T15:31:03.099Z,50.90
2019-03-08T15:33:31.542Z,50.80
2019-03-08T15:35:59.865Z,50.40
2019-03-08T15:38:28.136Z,50.70
2019-03-08T15:40:57.370Z,50.90
2019-03-08T15:43:26.635Z,51.20
2019-03-08T15:45:54.965Z,50.90
2019-03-08T15:48:23.254Z,50.80
2019-03-08T15:50:51.628Z,50.90
2019-03-08T15:53:20.054Z,51.80
2019-03-08T15:55:52.924Z,51.30
2019-03-08T15:58:18.449Z,51.40
2019-03-08T16:00:46.860Z,50.50
2019-03-08T16:03:15.178Z,51.20
2019-03-08T16:05:43.512Z,49.60
2019-03-08T16:08:12.404Z,49.50
2019-03-08T16:10:40.829Z,49.80
2019-03-08T16:13:09.120Z,49.50
2019-03-08T16:15:37.500Z,50.00
2019-03-08T16:18:05.776Z,50.60
2019-03-08T16:20:37.442Z,50.90
2019-03-08T16:23:06.560Z,51.60
2019-03-08T16:25:34.564Z,51.90
2019-03-08T16:28:02.857Z,52.10
2019-03-08T16:30:38.337Z,52.50
2019-03-08T16:33:17.850Z,53.00
2019-03-08T16:35:51.760Z,53.70
2019-03-08T16:38:24.439Z,54.00
2019-03-08T16:40:57.230Z,54.10
2019-03-08T16:43:30.150Z,54.50
2019-03-08T16:46:02.947Z,54.60
2019-03-08T16:48:33.036Z,54.20
2019-03-08T16:51:03.106Z,54.20
2019-03-08T16:53:46.250Z,54.50
2019-03-08T16:56:19.170Z,54.50
2019-03-08T16:58:54.904Z,54.60
2019-03-08T17:01:41.939Z,54.90
2019-03-08T17:04:14.986Z,55.20
2019-03-08T17:06:50.863Z,55.50
2019-03-08T17:09:24.364Z,54.80
2019-03-08T17:12:00.111Z,54.50
2019-03-08T17:14:30.118Z,54.40
2019-03-08T17:17:09.134Z,54.20
2019-03-08T17:19:51.252Z,53.80
2019-03-08T17:22:33.225Z,53.30
2019-03-08T17:25:03.334Z,53.00
2019-03-08T17:27:36.186Z,53.10
2019-03-08T17:30:18.184Z,52.90
2019-03-08T17:33:03.304Z,52.80
2019-03-08T17:35:42.419Z,53.00
2019-03-08T17:38:18.139Z,53.00
2019-03-08T17:41:03.412Z,53.20
2019-03-08T17:43:36.159Z,53.70
2019-03-08T17:46:21.404Z,53.70
2019-03-08T17:48:54.334Z,53.70
2019-03-08T17:51:30.177Z,53.90
2019-03-08T17:54:00.061Z,53.60
2019-03-08T17:56:42.014Z,53.90
2019-03-08T17:59:21.361Z,53.90
2019-03-08T18:02:06.275Z,53.60
2019-03-08T18:04:52.186Z,53.90
2019-03-08T18:07:24.837Z,54.00
2019-03-08T18:10:00.517Z,54.00
2019-03-08T18:12:49.731Z,54.20
2019-03-08T18:15:19.708Z,55.10
2019-03-08T18:17:55.718Z,56.00
2019-03-08T18:20:37.739Z,55.60
2019-03-08T18:23:10.743Z,56.00
2019-03-08T18:25:40.684Z,55.90
2019-03-08T18:28:10.595Z,56.50
2019-03-08T18:30:40.497Z,56.80
2019-03-08T18:33:10.686Z,57.00
2019-03-08T18:35:40.586Z,57.40
2019-03-08T18:38:19.875Z,57.90
2019-03-08T18:40:56.042Z,58.60
2019-03-08T18:43:28.819Z,58.70
2019-03-08T18:46:04.654Z,59.10
2019-03-08T18:48:34.678Z,58.80
2019-03-08T18:51:19.791Z,58.80
2019-03-08T18:53:49.885Z,58.90
2019-03-08T18:56:25.880Z,59.10
2019-03-08T18:59:01.928Z,59.10
2019-03-08T19:01:48.216Z,59.10
2019-03-08T19:04:21.046Z,59.00
2019-03-08T19:06:53.437Z,58.70
2019-03-08T19:09:23.726Z,58.90
2019-03-08T19:11:53.626Z,58.80
2019-03-08T19:14:26.481Z,59.80
2019-03-08T19:17:01.843Z,59.30
2019-03-08T19:19:32.193Z,59.10
2019-03-08T19:22:02.142Z,58.70
2019-03-08T19:24:32.646Z,57.80
2019-03-08T19:27:08.592Z,57.90
2019-03-08T19:29:55.196Z,57.90
2019-03-08T19:32:25.186Z,57.50
2019-03-08T19:35:07.288Z,57.50
2019-03-08T19:37:55.839Z,57.40
2019-03-08T19:40:31.717Z,57.60
2019-03-08T19:43:04.632Z,57.40
2019-03-08T19:45:43.972Z,57.20
2019-03-08T19:48:23.077Z,56.90
2019-03-08T19:50:55.759Z,56.90
2019-03-08T19:53:28.401Z,56.80
2019-03-08T19:56:04.054Z,57.00
2019-03-08T19:58:33.939Z,57.30
2019-03-08T20:01:10.101Z,57.20
2019-03-08T20:03:46.299Z,57.30
2019-03-08T20:06:22.235Z,57.60
2019-03-08T20:08:58.192Z,57.70
2019-03-08T20:11:28.164Z,57.80
2019-03-08T20:13:58.086Z,57.70
2019-03-08T20:16:33.754Z,58.20
2019-03-08T20:19:12.490Z,58.50
2019-03-08T20:21:58.676Z,57.50
2019-03-08T20:24:40.850Z,57.60
2019-03-08T20:27:19.650Z,58.30
2019-03-08T20:29:52.529Z,58.20
2019-03-08T20:32:25.135Z,58.80
2019-03-08T20:35:04.268Z,59.10
2019-03-08T20:37:34.182Z,59.40
2019-03-08T20:40:06.281Z,60.60
2019-03-08T20:42:48.392Z,59.80
2019-03-08T20:45:21.441Z,59.80
2019-03-08T20:47:49.806Z,60.10
2019-03-08T20:50:18.084Z,60.10
2019-03-08T20:52:46.365Z,60.00
2019-03-08T20:55:14.618Z,59.90
2019-03-08T20:57:42.974Z,60.00
2019-03-08T21:00:16.183Z,60.20
2019-03-08T21:02:44.522Z,60.10
2019-03-08T21:05:12.904Z,60.50
2019-03-08T21:07:41.217Z,60.40
2019-03-08T21:10:14.030Z,60.70
2019-03-08T21:12:42.289Z,60.70
2019-03-08T21:15:12.666Z,60.90
2019-03-08T21:17:40.960Z,61.10
2019-03-08T21:20:10.887Z,61.30
2019-03-08T21:22:39.164Z,61.70
2019-03-08T21:25:10.338Z,61.80
2019-03-08T21:27:38.738Z,61.90
2019-03-08T21:30:17.374Z,62.60
2019-03-08T21:32:45.666Z,62.70
2019-03-08T21:35:14.133Z,62.80
2019-03-08T21:37:42.764Z,63.00
2019-03-08T21:40:12.266Z,63.50
2019-03-08T21:42:40.633Z,63.50
2019-03-08T21:45:14.163Z,63.70
2019-03-08T21:47:42.595Z,64.00
2019-03-08T21:50:13.395Z,64.30
2019-03-08T21:52:41.725Z,64.20
2019-03-08T21:55:10.022Z,64.30
2019-03-08T21:57:38.301Z,64.40
2019-03-08T22:00:17.899Z,64.90
2019-03-08T22:02:46.276Z,65.10
2019-03-08T22:05:16.138Z,65.30
2019-03-08T22:07:44.536Z,65.40
2019-03-08T22:10:20.530Z,65.30
2019-03-08T22:12:48.862Z,65.10
2019-03-08T22:15:17.186Z,65.20
2019-03-08T22:17:45.510Z,64.90
2019-03-08T22:20:13.811Z,65.00
2019-03-08T22:22:42.110Z,64.50
2019-03-08T22:25:12.141Z,64.30
2019-03-08T22:27:40.785Z,64.50
2019-03-08T22:30:15.012Z,64.50
2019-03-08T22:32:43.334Z,64.20
2019-03-08T22:35:11.609Z,64.40
2019-03-08T22:37:39.942Z,64.30
2019-03-08T22:40:09.326Z,64.00
2019-03-08T22:42:37.674Z,63.70
2019-03-08T22:45:07.173Z,63.30
2019-03-08T22:47:35.475Z,64.10
2019-03-08T22:50:06.557Z,64.00
2019-03-08T22:52:35.881Z,63.90
2019-03-08T22:55:06.559Z,64.10
2019-03-08T22:57:34.819Z,64.20
2019-03-08T23:00:03.631Z,64.60
2019-03-08T23:02:32.035Z,64.50
2019-03-08T23:05:00.384Z,64.70
2019-03-08T23:07:28.837Z,64.60
2019-03-08T23:09:57.198Z,64.90
2019-03-08T23:12:25.565Z,64.80
2019-03-08T23:14:53.922Z,65.10
2019-03-08T23:17:22.241Z,65.20
2019-03-08T23:19:50.824Z,65.20
2019-03-08T23:22:19.162Z,65.10
2019-03-08T23:24:47.551Z,65.50
2019-03-08T23:27:23.661Z,65.70
2019-03-08T23:29:53.781Z,65.70
2019-03-08T23:32:26.698Z,66.50
2019-03-08T23:34:55.074Z,66.00
2019-03-08T23:37:23.350Z,65.60
2019-03-08T23:39:51.695Z,65.50
2019-03-08T23:42:19.991Z,66.00
2019-03-08T23:44:48.350Z,65.80
2019-03-08T23:47:16.730Z,66.70
2019-03-08T23:49:45.010Z,65.90
2019-03-08T23:52:13.333Z,66.10
2019-03-08T23:54:41.610Z,66.10
2019-03-08T23:57:09.878Z,66.00
2019-03-08T23:59:38.143Z,66.30
